Time;durP1;ratioP1;P1;durP2;ratioP2;P2;SDS_P1;SDS_P2;PMS_P1;PMS_P2;Temp;Humidity;BMP_temperature;BMP_pressure;BME280_temperature;BME280_humidity;BME280_pressure;Samples;Min_cycle;Max_cycle;Signal;HPM_P1;HPM_P2
2023/04/22 00:00:57;;;;;;;70.07;35.05;;;;;;;11.75;nan;98340.88;5042465;28;20183;-78
2023/04/22 00:03:43;;;;;;;61.80;31.88;;;;;;;11.27;nan;98350.25;5041210;28;20094;-78
2023/04/22 00:06:27;;;;;;;70.22;34.72;;;;;;;11.56;nan;98338.25;5047529;28;20048;-78
2023/04/22 00:09:11;;;;;;;67.55;32.92;;;;;;;11.69;nan;98352.28;5041311;28;20040;-78
2023/04/22 00:11:56;;;;;;;69.32;33.08;;;;;;;11.60;nan;98343.09;5045263;28;20039;-78
2023/04/22 00:14:40;;;;;;;71.40;31.02;;;;;;;11.59;nan;98342.25;5046106;28;20043;-78
2023/04/22 00:17:25;;;;;;;57.05;29.85;;;;;;;11.81;nan;98333.94;5042615;28;20168;-79
2023/04/22 00:20:10;;;;;;;59.53;30.27;;;;;;;11.83;nan;98327.44;5049202;28;20048;-78
2023/04/22 00:22:54;;;;;;;59.08;30.38;;;;;;;11.52;nan;98316.03;5044687;28;20497;-78
2023/04/22 00:25:39;;;;;;;52.40;27.63;;;;;;;11.77;nan;98320.41;5042265;28;20044;-79
2023/04/22 00:28:23;;;;;;;54.00;28.88;;;;;;;11.85;nan;98314.06;5046453;28;20053;-78
2023/04/22 00:31:07;;;;;;;52.45;29.13;;;;;;;11.94;nan;98301.41;5049389;28;20140;-78
2023/04/22 00:33:52;;;;;;;53.67;27.55;;;;;;;11.71;nan;98303.72;5044938;28;20098;-78
2023/04/22 00:36:36;;;;;;;49.75;28.08;;;;;;;11.46;nan;98301.16;5044991;28;20052;-78
2023/04/22 00:39:20;;;;;;;52.58;29.08;;;;;;;11.52;nan;98295.03;5049897;28;20129;-78
2023/04/22 00:42:06;;;;;;;58.22;31.13;;;;;;;11.73;nan;98279.03;5039709;28;20060;-78
2023/04/22 00:44:50;;;;;;;56.30;30.83;;;;;;;19.08;nan;98287.88;5043655;28;20067;-78
2023/04/22 00:47:35;;;;;;;54.38;30.83;;;;;;;14.62;nan;98260.78;5042551;28;20068;-77
2023/04/22 00:50:19;;;;;;;55.85;32.45;;;;;;;14.31;nan;98262.13;5037648;28;20168;-77
2023/04/22 00:53:03;;;;;;;56.38;32.25;;;;;;;14.29;nan;98254.44;5043705;28;20056;-77
2023/04/22 00:55:47;;;;;;;54.65;32.72;;;;;;;14.41;nan;98257.81;5043874;28;20040;-77
2023/04/22 00:58:32;;;;;;;71.05;35.70;;;;;;;14.66;nan;98243.41;5035977;28;20037;-77
2023/04/22 01:01:16;;;;;;;64.65;34.75;;;;;;;14.21;nan;98241.63;5042128;28;20043;-77
2023/04/22 01:04:02;;;;;;;66.93;35.53;;;;;;;14.46;nan;98237.81;5043163;28;20044;-77
2023/04/22 01:06:46;;;;;;;64.63;34.72;;;;;;;14.40;nan;98235.09;5042699;28;20163;-77
2023/04/22 01:09:30;;;;;;;63.25;35.90;;;;;;;14.53;nan;98238.44;5037476;28;20400;-77
2023/04/22 01:12:14;;;;;;;66.50;34.75;;;;;;;14.68;nan;98230.78;5038912;28;20095;-77
2023/04/22 01:14:58;;;;;;;62.58;34.75;;;;;;;14.47;nan;98223.56;5036696;28;20517;-79
2023/04/22 01:17:44;;;;;;;56.40;32.33;;;;;;;14.77;nan;98222.47;5039424;28;20092;-78
2023/04/22 01:20:28;;;;;;;56.83;32.42;;;;;;;14.64;nan;98216.44;5041664;28;20047;-78
2023/04/22 01:23:20;;;;;;;67.18;35.08;;;;;;;14.03;nan;98209.16;5040456;28;20066;-77
2023/04/22 01:26:04;;;;;;;65.75;33.10;;;;;;;13.97;nan;98202.19;5040919;28;20044;-78
2023/04/22 01:28:49;;;;;;;64.15;35.20;;;;;;;14.18;nan;98186.69;5041751;28;20557;-77
2023/04/22 01:31:33;;;;;;;69.25;35.97;;;;;;;14.12;nan;98191.09;5042185;28;20068;-77
2023/04/22 01:34:18;;;;;;;67.93;36.55;;;;;;;13.83;nan;98184.00;5043348;28;20573;-78
2023/04/22 01:37:02;;;;;;;77.32;37.03;;;;;;;13.65;nan;98181.56;5042388;28;20048;-77
2023/04/22 01:39:46;;;;;;;77.13;38.10;;;;;;;13.76;nan;98183.38;5042515;28;20052;-78
2023/04/22 01:42:31;;;;;;;74.47;37.17;;;;;;;13.77;nan;98179.69;5039191;28;20400;-77
2023/04/22 01:45:16;;;;;;;70.82;38.50;;;;;;;13.68;nan;98176.63;5038941;28;20125;-76
2023/04/22 01:48:00;;;;;;;78.03;37.70;;;;;;;13.50;nan;98180.22;5037336;28;20115;-76
2023/04/22 01:50:44;;;;;;;74.55;37.05;;;;;;;13.75;nan;98176.47;5038968;28;20170;-76
2023/04/22 01:53:28;;;;;;;81.70;39.33;;;;;;;13.79;nan;98177.63;5043277;28;20518;-77
2023/04/22 01:56:12;;;;;;;84.75;39.78;;;;;;;13.84;nan;98177.69;5037731;28;20114;-77
2023/04/22 01:58:56;;;;;;;85.68;39.58;;;;;;;13.67;nan;98179.50;5036299;28;20439;-76
2023/04/22 02:01:40;;;;;;;84.03;39.05;;;;;;;14.04;nan;98173.00;5036383;28;20043;-76
2023/04/22 02:04:24;;;;;;;81.47;37.90;;;;;;;14.04;nan;98165.88;5043231;28;20099;-77
2023/04/22 02:07:08;;;;;;;71.43;36.25;;;;;;;14.21;nan;98165.09;5044629;28;20052;-77
2023/04/22 02:09:52;;;;;;;72.63;37.15;;;;;;;14.03;nan;98166.94;5039907;28;20087;-77
2023/04/22 02:12:37;;;;;;;76.47;36.20;;;;;;;14.03;nan;98166.94;5040260;28;20090;-78
2023/04/22 02:15:21;;;;;;;76.45;35.25;;;;;;;13.96;nan;98161.00;5036633;28;20110;-77
2023/04/22 02:18:07;;;;;;;77.47;36.80;;;;;;;14.01;nan;98163.72;5040849;28;20068;-78
2023/04/22 02:20:51;;;;;;;74.63;34.28;;;;;;;13.94;nan;98153.31;5038951;28;20068;-78
2023/04/22 02:23:36;;;;;;;63.42;32.35;;;;;;;14.10;nan;98151.72;5037743;28;20045;-77
2023/04/22 02:26:20;;;;;;;70.25;32.30;;;;;;;13.86;nan;98145.81;5041453;28;20096;-78
2023/04/22 02:29:04;;;;;;;58.58;28.95;;;;;;;14.12;nan;98139.09;5043760;28;20044;-77
2023/04/22 02:31:48;;;;;;;69.35;33.00;;;;;;;14.17;nan;98140.22;5038717;28;20040;-78
2023/04/22 02:34:32;;;;;;;58.13;28.88;;;;;;;14.39;nan;98135.00;5036939;28;20126;-79
2023/04/22 02:37:17;;;;;;;49.58;27.80;;;;;;;14.40;nan;98126.84;5041495;28;20048;-78
2023/04/22 02:40:02;;;;;;;48.47;25.30;;;;;;;14.36;nan;98127.56;5039879;28;20080;-79
2023/04/22 02:42:47;;;;;;;38.60;21.88;;;;;;;14.24;nan;98114.47;5038176;28;20064;-79
2023/04/22 02:45:31;;;;;;;34.83;21.27;;;;;;;14.32;nan;98124.59;5034760;28;20047;-79
2023/04/22 02:48:15;;;;;;;41.30;22.55;;;;;;;14.03;nan;98119.44;5036766;28;20391;-78
2023/04/22 02:50:59;;;;;;;33.20;19.55;;;;;;;13.85;nan;98121.25;5038861;28;20048;-79
2023/04/22 02:53:44;;;;;;;31.88;19.10;;;;;;;14.12;nan;98115.34;5038945;28;20147;-78
2023/04/22 02:56:28;;;;;;;33.90;20.05;;;;;;;13.80;nan;98115.91;5036744;28;20108;-78
2023/04/22 02:59:12;;;;;;;34.78;18.60;;;;;;;13.76;nan;98109.50;5041159;28;20036;-78
2023/04/22 03:01:56;;;;;;;31.58;18.63;;;;;;;13.84;nan;98105.66;5038222;28;20036;-77
2023/04/22 03:04:40;;;;;;;29.55;17.90;;;;;;;13.93;nan;98095.50;5044519;28;20048;-78
2023/04/22 03:07:24;;;;;;;29.77;18.77;;;;;;;13.43;nan;98093.38;5039653;28;20052;-78
2023/04/22 03:10:08;;;;;;;29.15;18.30;;;;;;;13.47;nan;98091.06;5039361;28;20064;-77
2023/04/22 03:12:52;;;;;;;30.63;18.17;;;;;;;13.60;nan;98078.66;5040170;28;20445;-77
2023/04/22 03:15:36;;;;;;;27.73;17.15;;;;;;;13.41;nan;98076.19;5035592;28;20102;-78
2023/04/22 03:18:20;;;;;;;25.33;16.30;;;;;;;13.51;nan;98060.56;5039935;28;20044;-78
2023/04/22 03:21:05;;;;;;;27.23;16.35;;;;;;;13.36;nan;98066.34;5035083;28;20044;-78
2023/04/22 03:23:49;;;;;;;26.67;16.25;;;;;;;13.21;nan;98058.16;5039217;28;20715;-79
2023/04/22 03:26:33;;;;;;;25.23;15.73;;;;;;;13.48;nan;98045.22;5041432;28;20044;-78
2023/04/22 03:29:17;;;;;;;22.30;14.05;;;;;;;13.62;nan;98050.97;5037462;28;20048;-77
2023/04/22 03:32:02;;;;;;;23.85;15.07;;;;;;;13.05;nan;98046.53;5035366;28;20494;-77
2023/04/22 03:34:46;;;;;;;23.38;15.50;;;;;;;13.20;nan;98038.94;5040989;28;20044;-77
2023/04/22 03:37:29;;;;;;;23.30;14.57;;;;;;;13.37;nan;98031.03;5042796;28;20044;-77
2023/04/22 03:40:14;;;;;;;22.52;14.38;;;;;;;13.43;nan;98026.69;5042092;28;20045;-77
2023/04/22 03:42:58;;;;;;;20.38;13.77;;;;;;;13.44;nan;98017.75;5038676;28;20040;-77
2023/04/22 03:45:43;;;;;;;21.77;14.65;;;;;;;13.33;nan;98019.38;5041279;28;20418;-78
2023/04/22 03:48:34;;;;;;;25.48;14.73;;;;;;;13.42;nan;98019.78;5038330;28;20072;-77
2023/04/22 03:51:18;;;;;;;26.88;15.57;;;;;;;13.14;nan;98018.78;5036448;28;20125;-77
2023/04/22 03:54:02;;;;;;;29.42;16.15;;;;;;;13.08;nan;98014.47;5032240;28;20056;-77
2023/04/22 03:56:47;;;;;;;21.70;14.55;;;;;;;13.36;nan;98007.53;5042610;28;20120;-77
2023/04/22 03:59:31;;;;;;;26.73;15.80;;;;;;;13.27;nan;98007.16;5044770;28;20037;-78
2023/04/22 04:02:14;;;;;;;25.20;15.18;;;;;;;13.42;nan;98001.34;5039315;28;20048;-77
2023/04/22 04:04:58;;;;;;;25.45;15.77;;;;;;;13.43;nan;97985.31;5039345;28;20040;-76
2023/04/22 04:07:42;;;;;;;26.80;16.48;;;;;;;13.37;nan;97993.34;5039540;28;20119;-76
2023/04/22 04:10:26;;;;;;;30.75;17.23;;;;;;;13.40;nan;97983.13;5044473;28;20103;-77
2023/04/22 04:13:10;;;;;;;25.55;16.33;;;;;;;13.60;nan;97983.72;5039291;28;20122;-77
2023/04/22 04:15:54;;;;;;;23.77;14.35;;;;;;;13.73;nan;97978.09;5037533;28;20175;-76
2023/04/22 04:18:38;;;;;;;26.35;15.00;;;;;;;13.67;nan;97971.97;5040678;28;20083;-77
2023/04/22 04:21:23;;;;;;;25.05;15.60;;;;;;;13.74;nan;97974.44;5037173;28;20388;-77
2023/04/22 04:24:07;;;;;;;24.42;14.20;;;;;;;13.76;nan;97969.75;5042582;28;20114;-80
2023/04/22 04:26:52;;;;;;;22.17;14.00;;;;;;;13.38;nan;97960.69;5041572;28;20040;-80
2023/04/22 04:29:36;;;;;;;21.58;13.57;;;;;;;13.61;nan;97970.28;5046022;28;20031;-79
2023/04/22 04:32:21;;;;;;;26.15;15.00;;;;;;;13.46;nan;97957.69;5043571;28;20522;-77
2023/04/22 04:35:06;;;;;;;26.38;15.60;;;;;;;13.43;nan;97950.25;5042847;28;20090;-77
2023/04/22 04:37:50;;;;;;;24.75;15.30;;;;;;;13.51;nan;97944.56;5048095;28;20051;-78
2023/04/22 04:40:35;;;;;;;22.65;14.68;;;;;;;13.73;nan;97946.47;5041348;28;20059;-78
2023/04/22 04:43:20;;;;;;;22.80;14.73;;;;;;;13.76;nan;97940.72;5039477;28;20534;-77
2023/04/22 04:46:04;;;;;;;21.27;13.20;;;;;;;13.69;nan;97938.25;5040557;28;20120;-77
2023/04/22 04:48:49;;;;;;;21.33;13.93;;;;;;;13.88;nan;97940.63;5038691;28;20056;-76
2023/04/22 04:51:33;;;;;;;22.27;14.27;;;;;;;13.92;nan;97939.09;5043843;28;20043;-78
2023/04/22 04:54:17;;;;;;;20.92;13.77;;;;;;;13.80;nan;97947.09;5044054;28;20503;-77
2023/04/22 04:57:02;;;;;;;21.08;13.80;;;;;;;13.92;nan;97940.91;5039143;28;20483;-77
2023/04/22 04:59:45;;;;;;;21.58;14.13;;;;;;;13.94;nan;97944.91;5039551;28;20954;-76
2023/04/22 05:02:29;;;;;;;21.92;13.95;;;;;;;13.96;nan;97944.69;5043838;28;20045;-76
2023/04/22 05:05:13;;;;;;;23.17;14.40;;;;;;;13.83;nan;97940.53;5037930;28;20103;-76
2023/04/22 05:07:57;;;;;;;23.30;14.40;;;;;;;13.91;nan;97942.78;5048301;28;20044;-77
2023/04/22 05:10:41;;;;;;;28.73;15.60;;;;;;;13.84;nan;97935.03;5041638;28;20442;-77
2023/04/22 05:13:26;;;;;;;27.02;14.73;;;;;;;13.87;nan;97938.22;5042749;28;20399;-77
2023/04/22 05:16:10;;;;;;;26.70;15.52;;;;;;;13.82;nan;97945.03;5044840;28;20449;-77
2023/04/22 05:18:55;;;;;;;22.27;13.98;;;;;;;13.89;nan;97933.50;5043938;28;20538;-77
2023/04/22 05:21:39;;;;;;;27.45;16.92;;;;;;;13.83;nan;97930.78;5038757;28;20593;-77
2023/04/22 05:24:23;;;;;;;29.42;16.15;;;;;;;13.92;nan;97930.34;5035615;28;20049;-77
2023/04/22 05:27:07;;;;;;;27.30;16.33;;;;;;;13.84;nan;97929.75;5040048;28;20091;-77
2023/04/22 05:29:51;;;;;;;26.92;15.82;;;;;;;13.92;nan;97928.53;5036279;28;20167;-78
2023/04/22 05:32:35;;;;;;;30.02;16.58;;;;;;;13.99;nan;97926.50;5040024;28;20048;-78
2023/04/22 05:35:19;;;;;;;27.00;16.77;;;;;;;13.90;nan;97927.16;5036217;28;20175;-77
2023/04/22 05:38:03;;;;;;;30.92;17.17;;;;;;;13.96;nan;97931.50;5044921;28;20130;-77
2023/04/22 05:40:47;;;;;;;32.80;18.02;;;;;;;13.79;nan;97931.50;5037980;28;20152;-77
2023/04/22 05:43:31;;;;;;;31.75;17.85;;;;;;;13.72;nan;97931.69;5033895;28;20116;-77
2023/04/22 05:46:15;;;;;;;36.35;17.75;;;;;;;13.81;nan;97932.88;5040244;28;20044;-77
2023/04/22 05:48:59;;;;;;;30.75;18.08;;;;;;;13.76;nan;97930.19;5037956;28;20048;-78
2023/04/22 05:51:42;;;;;;;31.17;18.00;;;;;;;13.85;nan;97925.25;5038322;28;20091;-77
2023/04/22 05:54:28;;;;;;;33.95;18.90;;;;;;;13.82;nan;97928.38;5042695;28;20059;-78
2023/04/22 05:57:12;;;;;;;27.60;16.50;;;;;;;14.16;nan;97933.56;5039279;28;20095;-77
2023/04/22 05:59:56;;;;;;;40.45;19.67;;;;;;;14.21;nan;97933.63;5041383;28;20091;-77
2023/04/22 06:02:40;;;;;;;94.03;22.70;;;;;;;14.16;nan;97930.16;5041483;28;20049;-77
2023/04/22 06:05:24;;;;;;;31.48;18.10;;;;;;;14.23;nan;97949.25;5040806;28;20047;-78
2023/04/22 06:08:08;;;;;;;106.68;24.33;;;;;;;14.19;nan;97943.63;5039161;28;20053;-77
2023/04/22 06:10:52;;;;;;;39.58;21.83;;;;;;;14.27;nan;97945.88;5041012;28;20068;-77
2023/04/22 06:13:36;;;;;;;36.15;21.52;;;;;;;14.28;nan;97941.38;5038915;28;20132;-78
2023/04/22 06:16:21;;;;;;;34.20;20.23;;;;;;;14.37;nan;97939.09;5037965;28;20517;-77
2023/04/22 06:19:06;;;;;;;39.13;22.25;;;;;;;14.34;nan;97929.03;5045132;28;20187;-79
2023/04/22 06:21:50;;;;;;;37.53;21.85;;;;;;;14.51;nan;97924.50;5046903;28;20047;-78
2023/04/22 06:24:34;;;;;;;38.47;19.75;;;;;;;14.57;nan;97912.91;5040291;28;20112;-77
2023/04/22 06:27:18;;;;;;;35.40;19.80;;;;;;;14.34;nan;97921.13;5041034;28;20131;-77
2023/04/22 06:30:03;;;;;;;32.83;19.15;;;;;;;14.45;nan;97908.84;5039868;28;20055;-77
2023/04/22 06:32:54;;;;;;;36.58;20.40;;;;;;;14.46;nan;97902.50;5041983;28;20056;-76
2023/04/22 06:35:38;;;;;;;32.83;18.45;;;;;;;14.48;nan;97908.34;5036861;28;20099;-77
2023/04/22 06:38:22;;;;;;;33.92;20.55;;;;;;;14.60;nan;97905.53;5036871;28;20048;-77
2023/04/22 06:41:06;;;;;;;32.00;19.13;;;;;;;14.62;nan;97898.16;5036773;28;20404;-77
2023/04/22 06:43:50;;;;;;;37.10;18.77;;;;;;;14.65;nan;97903.75;5034497;28;20126;-76
2023/04/22 06:46:34;;;;;;;33.03;19.55;;;;;;;14.65;nan;97909.03;5040033;28;20449;-76
2023/04/22 06:49:18;;;;;;;36.25;19.42;;;;;;;14.68;nan;97892.69;5034023;28;20044;-78
2023/04/22 06:52:03;;;;;;;30.02;17.20;;;;;;;14.68;nan;97903.25;5040215;28;20039;-77
2023/04/22 06:54:50;;;;;;;29.20;17.50;;;;;;;14.70;nan;97903.81;5039236;28;20059;-76
2023/04/22 06:57:34;;;;;;;25.27;14.02;;;;;;;14.71;nan;97902.00;5040702;28;20176;-76
2023/04/22 07:00:18;;;;;;;18.55;11.60;;;;;;;14.67;nan;97904.31;5036025;28;20877;-76
2023/04/22 07:03:03;;;;;;;18.02;10.38;;;;;;;14.60;nan;97905.53;5043557;28;20544;-76
2023/04/22 07:05:47;;;;;;;11.20;7.95;;;;;;;14.53;nan;97900.47;5038259;28;20068;-76
2023/04/22 07:08:34;;;;;;;11.52;7.55;;;;;;;14.63;nan;97900.56;5039755;28;20140;-76
2023/04/22 07:11:18;;;;;;;8.43;5.93;;;;;;;14.52;nan;97893.59;5037867;28;20090;-76
2023/04/22 07:14:02;;;;;;;7.25;5.88;;;;;;;13.95;nan;97916.69;5032141;28;20040;-76
2023/04/22 07:16:46;;;;;;;8.55;6.68;;;;;;;13.83;nan;97901.78;5037375;28;20056;-76
2023/04/22 07:19:30;;;;;;;16.05;11.05;;;;;;;13.80;nan;97904.91;5034763;28;20106;-76
2023/04/22 07:22:14;;;;;;;20.00;12.43;;;;;;;14.01;nan;97905.16;5040266;28;20048;-76
2023/04/22 07:24:58;;;;;;;22.77;14.52;;;;;;;14.07;nan;97908.69;5037523;28;20091;-77
2023/04/22 07:27:42;;;;;;;24.60;16.10;;;;;;;13.81;nan;97900.41;5044085;28;20044;-76
2023/04/22 07:30:27;;;;;;;27.63;16.77;;;;;;;13.59;nan;97892.50;5044033;28;20427;-77
2023/04/22 07:33:11;;;;;;;25.73;16.10;;;;;;;13.46;nan;97890.97;5035618;28;20069;-78
2023/04/22 07:35:55;;;;;;;27.33;15.40;;;;;;;13.99;nan;97891.44;5039119;28;20078;-75
2023/04/22 07:38:39;;;;;;;24.55;15.48;;;;;;;13.70;nan;97886.28;5039481;28;20072;-76
2023/04/22 07:41:23;;;;;;;24.92;17.05;;;;;;;13.90;nan;97882.31;5036437;28;20132;-75
2023/04/22 07:44:09;;;;;;;38.38;21.67;;;;;;;14.14;nan;97881.03;5034682;28;20136;-75
2023/04/22 07:46:56;;;;;;;46.10;26.60;;;;;;;13.92;nan;97873.13;5031673;28;20090;-75
2023/04/22 07:49:42;;;;;;;57.97;34.72;;;;;;;14.46;nan;97874.28;5036890;28;20044;-76
2023/04/22 07:52:26;;;;;;;65.75;37.50;;;;;;;14.35;nan;97872.56;5036369;28;20090;-77
2023/04/22 07:55:10;;;;;;;66.10;37.67;;;;;;;14.38;nan;97882.63;5044107;28;20102;-75
2023/04/22 07:57:54;;;;;;;68.88;38.78;;;;;;;14.65;nan;97893.19;5041477;28;20040;-77
2023/04/22 08:00:38;;;;;;;54.30;33.05;;;;;;;14.97;nan;97895.13;5040964;28;20093;-77
2023/04/22 08:03:23;;;;;;;52.97;31.58;;;;;;;15.09;nan;97891.50;5041716;28;20528;-77
2023/04/22 08:06:07;;;;;;;50.03;31.10;;;;;;;15.52;nan;97894.19;5037804;28;20095;-77
2023/04/22 08:08:51;;;;;;;55.83;33.75;;;;;;;14.60;nan;97897.63;5042874;28;20072;-75
2023/04/22 08:11:35;;;;;;;57.75;33.83;;;;;;;14.23;nan;97893.81;5037005;28;20329;-76
2023/04/22 08:14:19;;;;;;;58.13;32.80;;;;;;;14.03;nan;97894.34;5035896;28;20055;-75
2023/04/22 08:17:04;;;;;;;61.67;34.45;;;;;;;13.95;nan;97898.22;5035663;28;20048;-75
2023/04/22 08:19:48;;;;;;;64.22;34.88;;;;;;;14.49;nan;97899.38;5036366;28;20510;-75
2023/04/22 08:22:32;;;;;;;63.30;33.88;;;;;;;14.61;nan;97889.47;5038782;28;20056;-76
2023/04/22 08:25:16;;;;;;;65.00;36.45;;;;;;;14.87;nan;97887.09;5041084;28;20099;-76
2023/04/22 08:28:01;;;;;;;64.00;32.20;;;;;;;14.80;nan;97891.78;5042377;28;20529;-75
2023/04/22 08:30:45;;;;;;;60.08;31.33;;;;;;;14.79;nan;97887.56;5040152;28;20051;-76
2023/04/22 08:33:29;;;;;;;58.65;32.03;;;;;;;14.66;nan;97878.94;5046971;28;20041;-75
2023/04/22 08:36:13;;;;;;;53.88;31.42;;;;;;;14.52;nan;97880.38;5040167;28;20091;-75
2023/04/22 08:38:58;;;;;;;54.63;31.30;;;;;;;14.76;nan;97880.13;5039325;28;21567;-76
2023/04/22 08:41:44;;;;;;;58.05;29.40;;;;;;;14.75;nan;97876.69;5044222;28;20576;-77
2023/04/22 08:44:28;;;;;;;55.40;31.42;;;;;;;15.54;nan;97876.19;5041677;28;20099;-78
2023/04/22 08:47:18;;;;;;;54.10;31.20;;;;;;;15.71;nan;97866.25;5041751;28;20524;-76
2023/04/22 08:50:03;;;;;;;56.50;31.40;;;;;;;15.83;nan;97868.69;5040889;28;20043;-78
2023/04/22 08:52:47;;;;;;;58.50;32.65;;;;;;;15.49;nan;97858.44;5040453;28;20037;-76
2023/04/22 08:55:33;;;;;;;55.78;32.58;;;;;;;15.67;nan;97864.38;5040040;28;20128;-76
2023/04/22 08:58:17;;;;;;;50.38;28.70;;;;;;;16.03;nan;97861.91;5035289;28;20063;-77
2023/04/22 09:01:02;;;;;;;50.03;27.98;;;;;;;16.22;nan;97866.75;5037023;28;20053;-76
2023/04/22 09:03:48;;;;;;;48.92;29.02;;;;;;;16.44;nan;97866.53;5040696;28;20082;-77
2023/04/22 09:06:32;;;;;;;54.65;27.35;;;;;;;16.57;nan;97870.53;5039142;28;20175;-76
2023/04/22 09:09:18;;;;;;;49.80;29.52;;;;;;;15.76;nan;97865.50;5038087;28;20123;-76
2023/04/22 09:12:04;;;;;;;55.47;30.02;;;;;;;16.07;nan;97862.97;5040074;28;20060;-77
2023/04/22 09:14:48;;;;;;;52.22;28.38;;;;;;;16.32;nan;97868.63;5041050;28;20502;-76
2023/04/22 09:17:37;;;;;;;53.03;29.27;;;;;;;16.90;nan;97863.16;5041137;28;20130;-76
2023/04/22 09:20:26;;;;;;;49.70;28.42;;;;;;;17.30;nan;97860.75;5039012;28;20060;-76
2023/04/22 09:23:12;;;;;;;41.40;25.75;;;;;;;17.59;nan;97868.16;5037384;28;20105;-76
2023/04/22 09:25:57;;;;;;;42.13;24.67;;;;;;;17.37;nan;97860.50;5061044;28;20521;-75
2023/04/22 09:28:52;;;;;;;41.88;24.83;;;;;;;17.59;nan;97856.72;5038893;28;20048;-77
2023/04/22 09:31:36;;;;;;;39.50;24.88;;;;;;;17.76;nan;97848.44;5037651;28;20403;-76
2023/04/22 09:34:21;;;;;;;42.83;24.85;;;;;;;17.84;nan;97848.66;5039563;28;20059;-75
2023/04/22 09:37:05;;;;;;;40.05;23.52;;;;;;;18.08;nan;97840.13;5038372;28;20044;-78
2023/04/22 09:39:50;;;;;;;38.80;22.45;;;;;;;18.04;nan;97841.72;5036599;28;20060;-80
2023/04/22 09:42:50;;;;;;;38.63;23.20;;;;;;;18.17;nan;97834.22;5033463;28;20048;-78
2023/04/22 09:45:40;;;;;;;35.65;22.58;;;;;;;17.49;nan;97842.44;5038893;28;20096;-78
2023/04/22 09:48:24;;;;;;;32.65;21.65;;;;;;;17.59;nan;97840.81;5037241;28;20064;-77
2023/04/22 09:51:18;;;;;;;;;;;;;;;17.39;nan;97847.75;5041053;28;20103;-77
2023/04/22 09:54:07;;;;;;;29.75;19.95;;;;;;;17.25;nan;97848.28;5037638;28;19963;-78
2023/04/22 09:56:52;;;;;;;28.90;19.48;;;;;;;17.12;nan;97848.88;5043718;28;20114;-78
2023/04/22 09:59:36;;;;;;;30.67;18.60;;;;;;;16.88;nan;97840.63;5042509;28;20072;-78
2023/04/22 10:02:28;;;;;;;28.67;18.50;;;;;;;17.20;nan;97837.69;5037167;28;20056;-77
2023/04/22 10:05:13;;;;;;;28.23;18.83;;;;;;;17.37;nan;97844.56;5041612;28;20079;-77
2023/04/22 10:07:57;;;;;;;27.85;18.05;;;;;;;17.19;nan;97848.56;5039962;28;20040;-77
2023/04/22 10:10:42;;;;;;;27.08;17.20;;;;;;;17.21;nan;97857.06;5040302;28;20036;-78
2023/04/22 10:13:26;;;;;;;27.27;18.35;;;;;;;16.32;nan;97856.19;5036953;28;20116;-77
2023/04/22 10:16:11;;;;;;;28.50;18.80;;;;;;;16.31;nan;97848.50;5048853;28;20515;-77
2023/04/22 10:18:57;;;;;;;32.75;19.50;;;;;;;16.39;nan;97850.63;5039352;28;20071;-76
2023/04/22 10:21:44;;;;;;;29.75;19.70;;;;;;;16.38;nan;97852.50;5037634;28;20082;-77
2023/04/22 10:24:34;;;;;;;30.08;20.65;;;;;;;16.80;nan;97848.03;5046843;28;20068;-77
2023/04/22 10:27:21;;;;;;;33.17;20.40;;;;;;;16.65;nan;97846.16;5040462;28;20095;-76
2023/04/22 10:30:07;;;;;;;32.25;22.42;;;;;;;17.10;nan;97835.09;5038151;28;20117;-77
2023/04/22 10:32:52;;;;;;;35.30;21.90;;;;;;;17.42;nan;97839.25;5042629;28;20140;-75
2023/04/22 10:35:36;;;;;;;31.05;21.10;;;;;;;17.64;nan;97832.81;5040409;28;20052;-74
2023/04/22 10:38:20;;;;;;;34.67;22.20;;;;;;;17.87;nan;97844.69;5040831;28;20085;-75
2023/04/22 10:41:04;;;;;;;29.35;20.75;;;;;;;18.23;nan;97849.06;5043084;28;20039;-76
2023/04/22 10:43:57;;;;;;;29.60;20.75;;;;;;;18.58;nan;97843.81;5038409;28;20406;-76
2023/04/22 10:46:51;;;;;;;30.35;21.45;;;;;;;19.40;nan;97837.81;5043098;28;20091;-77
2023/04/22 10:49:35;;;;;;;33.65;21.55;;;;;;;19.53;nan;97831.03;5039322;28;20511;-78
2023/04/22 10:52:28;;;;;;;33.00;22.30;;;;;;;19.78;nan;97828.34;5040002;28;20095;-78
2023/04/22 10:55:13;;;;;;;32.30;22.25;;;;;;;19.49;nan;97835.34;5040625;28;20064;-78
2023/04/22 10:57:58;;;;;;;30.08;21.48;;;;;;;19.94;nan;97828.97;5037237;28;20439;-78
2023/04/22 11:00:46;;;;;;;33.83;23.08;;;;;;;19.82;nan;97830.13;5039077;28;20056;-77
2023/04/22 11:03:31;;;;;;;31.00;22.75;;;;;;;19.94;nan;97832.41;5038946;28;20561;-76
2023/04/22 11:06:17;;;;;;;35.42;23.77;;;;;;;20.36;nan;97831.88;5037395;28;20056;-77
2023/04/22 11:09:11;;;;;;;33.85;24.20;;;;;;;19.84;nan;97827.97;5040090;28;20091;-78
2023/04/22 11:12:33;;;;;;;30.55;22.17;;;;;;;20.17;nan;97832.69;5038607;28;20454;-79
2023/04/22 11:15:21;;;;;;;29.13;22.60;;;;;;;19.89;nan;97843.13;5046955;28;20736;-77
2023/04/22 11:18:35;;;;;;;32.60;22.77;;;;;;;20.84;nan;97833.59;5037681;28;20411;-78
2023/04/22 11:21:20;;;;;;;30.50;20.48;;;;;;;20.98;nan;97833.63;5030548;28;20478;-77
2023/04/22 11:24:08;;;;;;;30.15;21.75;;;;;;;21.33;nan;97819.94;5036007;28;20091;-77
2023/04/22 11:26:55;;;;;;;34.17;22.05;;;;;;;21.22;nan;97832.69;5038912;28;20045;-78
2023/04/22 11:29:40;;;;;;;26.38;21.50;;;;;;;21.31;nan;97824.78;5036404;28;20047;-77
2023/04/22 11:32:24;;;;;;;25.17;19.33;;;;;;;21.31;nan;97824.78;5040058;28;20090;-78
2023/04/22 11:35:10;;;;;;;27.17;20.83;;;;;;;21.19;nan;97828.72;5040545;28;20049;-78
2023/04/22 11:38:13;;;;;;;29.65;20.30;;;;;;;20.61;nan;97835.25;5039049;28;20036;-77
2023/04/22 11:40:57;;;;;;;29.95;21.75;;;;;;;20.98;nan;97829.06;5037924;28;20040;-78
2023/04/22 11:43:46;;;;;;;26.67;20.40;;;;;;;21.30;nan;97817.88;5046131;28;20490;-78
2023/04/22 11:46:37;;;;;;;26.45;20.40;;;;;;;21.36;nan;97816.66;5043712;28;20091;-77
2023/04/22 11:49:21;;;;;;;26.30;19.77;;;;;;;;;;5039914;28;20143;-77
2023/04/22 11:52:05;;;;;;;27.08;20.13;;;;;;;21.34;nan;97822.31;5041172;28;20040;-78
2023/04/22 11:54:49;;;;;;;29.48;22.20;;;;;;;21.07;nan;97821.19;5038913;28;20477;-78
2023/04/22 11:57:35;;;;;;;29.40;21.92;;;;;;;21.42;nan;97823.50;5040213;28;20479;-78
2023/04/22 12:00:19;;;;;;;29.45;20.73;;;;;;;21.41;nan;97821.91;5038715;28;20302;-77
2023/04/22 12:03:11;;;;;;;26.95;22.00;;;;;;;20.89;nan;97825.50;5038380;28;20068;-76
2023/04/22 12:05:58;;;;;;;27.55;21.95;;;;;;;21.38;nan;97822.50;5037540;28;20442;-79
2023/04/22 12:08:43;;;;;;;29.58;21.67;;;;;;;20.90;nan;97827.09;5042338;28;20058;-77
2023/04/22 12:11:28;;;;;;;24.90;19.00;;;;;;;20.65;nan;97821.06;5039916;28;20091;-77
2023/04/22 12:14:11;;;;;;;;;;;;;;;20.98;nan;97822.94;5039617;28;20063;-76
2023/04/22 12:16:55;;;;;;;26.75;20.27;;;;;;;20.82;nan;97825.06;5043440;28;19978;-77
2023/04/22 12:19:40;;;;;;;26.95;20.05;;;;;;;20.72;nan;97820.66;5037480;28;20035;-77
2023/04/22 12:22:26;;;;;;;24.27;19.00;;;;;;;20.90;nan;97816.41;5041039;28;20110;-76
2023/04/22 12:25:10;;;;;;;25.40;18.63;;;;;;;21.02;nan;97818.59;5041792;28;20040;-76
2023/04/22 12:27:56;;;;;;;25.60;18.38;;;;;;;21.07;nan;97817.75;5037365;28;20118;-77
2023/04/22 12:30:40;;;;;;;26.60;19.17;;;;;;;21.40;nan;97818.47;5040102;28;20407;-77
2023/04/22 12:33:24;;;;;;;25.42;18.63;;;;;;;21.69;nan;97819.28;5046560;28;20071;-78
2023/04/22 12:36:09;;;;;;;23.90;18.02;;;;;;;21.37;nan;97812.91;5038123;28;20095;-77
2023/04/22 12:38:53;;;;;;;21.70;18.15;;;;;;;21.48;nan;97819.66;5045543;28;20117;-77
2023/04/22 12:41:37;;;;;;;22.88;18.33;;;;;;;21.66;nan;97809.19;5038941;28;20172;-76
2023/04/22 12:44:21;;;;;;;27.88;19.80;;;;;;;21.75;nan;97812.75;5046111;28;20080;-77
2023/04/22 12:47:05;;;;;;;25.23;19.10;;;;;;;21.71;nan;97819.78;5044584;28;20415;-76
2023/04/22 12:49:50;;;;;;;23.63;18.60;;;;;;;21.92;nan;97811.34;5042757;28;20259;-77
2023/04/22 12:52:34;;;;;;;25.58;19.48;;;;;;;21.85;nan;97810.97;5041401;28;20487;-76
2023/04/22 12:55:19;;;;;;;26.80;18.77;;;;;;;21.78;nan;97817.47;5043063;28;20043;-76
2023/04/22 12:58:03;;;;;;;29.63;21.48;;;;;;;21.22;nan;97820.13;5044362;28;20036;-76